MSC Bari — A8YD3 — position and weather

sailwx.info

Track history (hours):
 
Tides and Currents Weather Stations Pressure Air Temp Water Temp Dewpoint Dewpoint Depression Visibility Wind Speed Wind Dir Waves Ship Positions

MSC Bari

Last reported at 2015-Jun-29 20:16 UTC. Time now 2015-Jul-01 16:57 UTC.
Position N 40°45' E 029°31'.

Length 366 m; draft 10.7 m.

Type: Ship (hazmat cat A). MMSI: 636092188.

Date/timePositionNaut miles runAvg speedWind from/ knotsBaromVisibWave heightAir tempDewpointWater temp
2015-Jun-29 20:16N 40°45' E 029°31'7 9.8
2015-Jun-29 19:33N 40°43' E 029°22'1312.9
2015-Jun-29 18:33N 40°44' E 029°05'1514.8
2015-Jun-29 17:33N 40°48' E 028°46'  
2015-Jun-26 00:27N 37°35' E 023°59'1213.1
2015-Jun-25 23:33N 37°38' E 023°45'1414.4
2015-Jun-25 22:33N 37°51' E 023°37'6 5.6
2015-Jun-25 21:24N 37°57' E 023°35'0 0.0
2015-Jun-25 20:30N 37°57' E 023°35'0 0.0
2015-Jun-25 18:21N 37°57' E 023°35'0 0.0
2015-Jun-25 17:27N 37°57' E 023°35'0 0.0
2015-Jun-25 16:18N 37°57' E 023°35'0 0.0
2015-Jun-25 15:33N 37°57' E 023°35'0 0.0
2015-Jun-25 14:33N 37°57' E 023°35'0 0.0
2015-Jun-25 13:30N 37°57' E 023°35'0 0.0
2015-Jun-25 12:30N 37°57' E 023°35'0 0.0
2015-Jun-25 11:33N 37°57' E 023°35'0 0.0
2015-Jun-25 10:33N 37°57' E 023°35'0 0.0
2015-Jun-25 09:33N 37°57' E 023°35'0 0.0
2015-Jun-25 08:33N 37°57' E 023°35'0 0.0
2015-Jun-25 07:33N 37°57' E 023°35'0 0.0
2015-Jun-25 06:33N 37°57' E 023°35'0 0.0
2015-Jun-25 05:33N 37°57' E 023°35'0 0.0
2015-Jun-25 04:33N 37°57' E 023°35'3 3.3
2015-Jun-25 03:33N 37°54' E 023°35'0 0.4
2015-Jun-25 02:33N 37°54' E 023°34'4 3.7
2015-Jun-25 01:33N 37°52' E 023°38'1212.0
2015-Jun-25 00:33N 37°41' E 023°45'1312.8
2015-Jun-24 23:33N 37°29' E 023°50'1212.3
2015-Jun-24 22:33N 37°17' E 023°55'1212.4
2015-Jun-24 21:33N 37°06' E 024°01'1312.7
2015-Jun-24 20:33N 36°54' E 024°06'1313.0
2015-Jun-24 19:33N 36°42' E 024°12'1812.9
2015-Jun-24 18:09N 36°28' E 024°27'1212.9
2015-Jun-24 17:13N 36°22' E 024°39'913.3
2015-Jun-24 16:33N 36°17' E 024°48'1513.8
2015-Jun-24 15:30N 36°09' E 025°03'1313.4
2015-Jun-24 14:33N 36°02' E 025°16'1313.2
2015-Jun-24 13:33N 35°54' E 025°30'1313.4
2015-Jun-24 12:33N 35°47' E 025°44'1413.2
2015-Jun-24 11:30N 35°39' E 025°58'  
Track history (hours):
 
Tides and Currents Weather Stations Pressure Air Temp Water Temp Dewpoint Dewpoint Depression Visibility Wind Speed Wind Dir Waves Ship Positions

MSC Bari

Last reported at 2015-Jun-29 20:16 UTC. Time now 2015-Jul-01 16:57 UTC.
Position N 40°45' E 029°31'.

Length 366 m; draft 10.7 m.

Type: Ship (hazmat cat A). MMSI: 636092188.

Date/timePositionNaut miles runAvg speedWind from/ knotsBaromVisibWave heightAir tempDewpointWater temp
2015-Jun-29 20:16N 40°45' E 029°31'7 9.8
2015-Jun-29 19:33N 40°43' E 029°22'1312.9
2015-Jun-29 18:33N 40°44' E 029°05'1514.8
2015-Jun-29 17:33N 40°48' E 028°46'  
2015-Jun-26 00:27N 37°35' E 023°59'1213.1
2015-Jun-25 23:33N 37°38' E 023°45'1414.4
2015-Jun-25 22:33N 37°51' E 023°37'6 5.6
2015-Jun-25 21:24N 37°57' E 023°35'0 0.0
2015-Jun-25 20:30N 37°57' E 023°35'0 0.0
2015-Jun-25 18:21N 37°57' E 023°35'0 0.0
2015-Jun-25 17:27N 37°57' E 023°35'0 0.0
2015-Jun-25 16:18N 37°57' E 023°35'0 0.0
2015-Jun-25 15:33N 37°57' E 023°35'0 0.0
2015-Jun-25 14:33N 37°57' E 023°35'0 0.0
2015-Jun-25 13:30N 37°57' E 023°35'0 0.0
2015-Jun-25 12:30N 37°57' E 023°35'0 0.0
2015-Jun-25 11:33N 37°57' E 023°35'0 0.0
2015-Jun-25 10:33N 37°57' E 023°35'0 0.0
2015-Jun-25 09:33N 37°57' E 023°35'0 0.0
2015-Jun-25 08:33N 37°57' E 023°35'0 0.0
2015-Jun-25 07:33N 37°57' E 023°35'0 0.0
2015-Jun-25 06:33N 37°57' E 023°35'0 0.0
2015-Jun-25 05:33N 37°57' E 023°35'0 0.0
2015-Jun-25 04:33N 37°57' E 023°35'3 3.3
2015-Jun-25 03:33N 37°54' E 023°35'0 0.4
2015-Jun-25 02:33N 37°54' E 023°34'4 3.7
2015-Jun-25 01:33N 37°52' E 023°38'1212.0
2015-Jun-25 00:33N 37°41' E 023°45'1312.8
2015-Jun-24 23:33N 37°29' E 023°50'1212.3
2015-Jun-24 22:33N 37°17' E 023°55'1212.4
2015-Jun-24 21:33N 37°06' E 024°01'1312.7
2015-Jun-24 20:33N 36°54' E 024°06'1313.0
2015-Jun-24 19:33N 36°42' E 024°12'1812.9
2015-Jun-24 18:09N 36°28' E 024°27'1212.9
2015-Jun-24 17:13N 36°22' E 024°39'913.3
2015-Jun-24 16:33N 36°17' E 024°48'1513.8
2015-Jun-24 15:30N 36°09' E 025°03'1313.4
2015-Jun-24 14:33N 36°02' E 025°16'1313.2
2015-Jun-24 13:33N 35°54' E 025°30'1313.4
2015-Jun-24 12:33N 35°47' E 025°44'1413.2
2015-Jun-24 11:30N 35°39' E 025°58'  

Dump ship's entire track history